createdAt,value
2016-07-04T00:00:24.926Z,1004.99
2016-07-04T00:01:24.936Z,1004.99
2016-07-04T00:02:24.960Z,1004.99
2016-07-04T00:03:24.978Z,1004.96
2016-07-04T00:04:24.999Z,1004.99
2016-07-04T00:05:25.014Z,1004.99
2016-07-04T00:06:25.031Z,1004.98
2016-07-04T00:07:25.054Z,1005.02
2016-07-04T00:08:25.071Z,1004.98
2016-07-04T00:09:25.084Z,1005.03
2016-07-04T00:10:25.108Z,1005
2016-07-04T00:11:25.125Z,1004.94
2016-07-04T00:12:25.145Z,1005
2016-07-04T00:13:25.159Z,1004.99
2016-07-04T00:14:25.182Z,1004.97
2016-07-04T00:15:25.199Z,1005.01
2016-07-04T00:16:25.217Z,1005.02
2016-07-04T00:17:25.233Z,1004.99
2016-07-04T00:18:25.253Z,1005.04
2016-07-04T00:19:25.274Z,1005.06
2016-07-04T00:20:25.290Z,1005.07
2016-07-04T00:21:25.318Z,1005.05
2016-07-04T00:22:25.328Z,1005.06
2016-07-04T00:23:25.342Z,1005.07
2016-07-04T00:24:25.363Z,1005.04
2016-07-04T00:25:25.378Z,1005.07
2016-07-04T00:26:25.395Z,1005.06
2016-07-04T00:27:25.417Z,1005.09
2016-07-04T00:28:25.435Z,1005.07
2016-07-04T00:29:25.453Z,1005.02
2016-07-04T00:30:25.469Z,1005.03
2016-07-04T00:31:25.492Z,1004.99
2016-07-04T00:32:25.508Z,1004.99
2016-07-04T00:33:25.527Z,1004.96
2016-07-04T00:34:25.541Z,1004.99
2016-07-04T00:35:25.565Z,1004.95
2016-07-04T00:36:25.581Z,1004.97
2016-07-04T00:37:25.598Z,1004.97
2016-07-04T00:38:25.616Z,1004.94
2016-07-04T00:39:25.634Z,1004.93
2016-07-04T00:40:25.652Z,1004.94
2016-07-04T00:41:25.673Z,1004.92
2016-07-04T00:42:25.692Z,1004.91
2016-07-04T00:43:25.706Z,1004.9
2016-07-04T00:44:25.721Z,1004.89
2016-07-04T00:45:25.745Z,1004.9
2016-07-04T00:46:25.758Z,1004.91
2016-07-04T00:47:25.779Z,1004.91
2016-07-04T00:48:25.797Z,1004.9
2016-07-04T00:49:25.815Z,1004.88
2016-07-04T00:50:25.829Z,1004.94
2016-07-04T00:51:25.849Z,1004.88
2016-07-04T00:52:25.870Z,1004.9
2016-07-04T00:53:25.883Z,1004.9
2016-07-04T00:54:25.903Z,1004.87
2016-07-04T00:55:25.924Z,1004.9
2016-07-04T00:56:25.942Z,1004.88
2016-07-04T00:57:25.959Z,1004.91
2016-07-04T00:58:25.979Z,1004.88
2016-07-04T00:59:25.994Z,1004.91
2016-07-04T01:00:26.013Z,1004.88
2016-07-04T01:01:26.029Z,1004.88
2016-07-04T01:02:26.051Z,1004.88
2016-07-04T01:03:26.066Z,1004.86
2016-07-04T01:04:26.081Z,1004.91
2016-07-04T01:05:26.103Z,1004.87
2016-07-04T01:06:26.122Z,1004.91
2016-07-04T01:07:26.141Z,1004.87
2016-07-04T01:08:26.215Z,1004.9
2016-07-04T01:09:26.176Z,1004.86
2016-07-04T01:10:26.193Z,1004.9
2016-07-04T01:11:26.209Z,1004.91
2016-07-04T01:12:26.229Z,1004.87
2016-07-04T01:13:26.250Z,1004.9
2016-07-04T01:14:26.264Z,1004.91
2016-07-04T01:15:26.281Z,1004.92
2016-07-04T01:16:26.297Z,1004.91
2016-07-04T01:17:26.315Z,1004.92
2016-07-04T01:18:26.331Z,1004.93
2016-07-04T01:19:26.354Z,1004.92
2016-07-04T01:20:26.369Z,1004.93
2016-07-04T01:21:26.392Z,1004.91
2016-07-04T01:22:26.405Z,1004.93
2016-07-04T01:23:26.427Z,1004.94
2016-07-04T01:24:26.443Z,1004.95
2016-07-04T01:25:26.464Z,1004.93
2016-07-04T01:26:26.479Z,1004.89
2016-07-04T01:27:26.497Z,1004.9
2016-07-04T01:28:26.518Z,1004.88
2016-07-04T01:29:26.536Z,1004.86
2016-07-04T01:30:26.553Z,1004.89
2016-07-04T01:31:26.570Z,1004.84
2016-07-04T01:32:26.588Z,1004.88
2016-07-04T01:33:26.607Z,1004.88
2016-07-04T01:34:26.621Z,1004.87
2016-07-04T01:35:26.642Z,1004.87
2016-07-04T01:36:26.663Z,1004.87
2016-07-04T01:37:26.678Z,1004.87
2016-07-04T01:38:26.696Z,1004.89
2016-07-04T01:39:26.710Z,1004.88
2016-07-04T01:40:26.730Z,1004.85
2016-07-04T01:41:26.748Z,1004.86
2016-07-04T01:42:26.763Z,1004.87
2016-07-04T01:43:26.783Z,1004.87
2016-07-04T01:44:26.806Z,1004.87
2016-07-04T01:45:26.820Z,1004.85
2016-07-04T01:46:26.839Z,1004.81
2016-07-04T01:47:26.858Z,1004.75
2016-07-04T01:48:26.877Z,1004.77
2016-07-04T01:49:26.890Z,1004.78
2016-07-04T01:50:26.914Z,1004.75
2016-07-04T01:51:26.932Z,1004.74
2016-07-04T01:52:26.948Z,1004.75
2016-07-04T01:53:26.966Z,1004.69
2016-07-04T01:54:26.987Z,1004.71
2016-07-04T01:55:27.003Z,1004.69
2016-07-04T01:56:27.023Z,1004.64
2016-07-04T01:57:27.038Z,1004.69
2016-07-04T01:58:27.056Z,1004.64
2016-07-04T01:59:27.073Z,1004.66
2016-07-04T02:00:27.097Z,1004.66
2016-07-04T02:01:27.112Z,1004.66
2016-07-04T02:02:27.126Z,1004.62
2016-07-04T02:03:27.142Z,1004.62
2016-07-04T02:04:27.166Z,1004.63
2016-07-04T02:05:27.188Z,1004.61
2016-07-04T02:06:27.199Z,1004.57
2016-07-04T02:07:27.219Z,1004.54
2016-07-04T02:08:27.238Z,1004.58
2016-07-04T02:09:27.311Z,1004.58
2016-07-04T02:10:27.274Z,1004.56
2016-07-04T02:11:27.295Z,1004.6
2016-07-04T02:12:27.310Z,1004.56
2016-07-04T02:13:27.374Z,1004.58
2016-07-04T02:14:27.346Z,1004.6
2016-07-04T02:15:27.423Z,1004.66
2016-07-04T02:16:27.429Z,1004.63
2016-07-04T02:17:27.400Z,1004.69
2016-07-04T02:18:27.419Z,1004.68
2016-07-04T02:19:27.435Z,1004.74
2016-07-04T02:20:27.454Z,1004.69
2016-07-04T02:21:27.476Z,1004.71
2016-07-04T02:22:27.488Z,1004.68
2016-07-04T02:23:27.509Z,1004.73
2016-07-04T02:24:27.530Z,1004.69
2016-07-04T02:25:27.544Z,1004.71
2016-07-04T02:26:27.565Z,1004.71
2016-07-04T02:27:27.583Z,1004.71
2016-07-04T02:28:27.599Z,1004.68
2016-07-04T02:29:27.616Z,1004.69
2016-07-04T02:30:27.634Z,1004.69
2016-07-04T02:31:27.654Z,1004.66
2016-07-04T02:32:27.671Z,1004.68
2016-07-04T02:33:27.690Z,1004.73
2016-07-04T02:34:27.711Z,1004.72
2016-07-04T02:35:27.728Z,1004.7
2016-07-04T02:36:27.741Z,1004.73
2016-07-04T02:37:27.761Z,1004.69
2016-07-04T02:38:27.781Z,1004.72
2016-07-04T02:39:27.797Z,1004.7
2016-07-04T02:40:27.813Z,1004.7
2016-07-04T02:41:27.829Z,1004.67
2016-07-04T02:42:27.853Z,1004.63
2016-07-04T02:43:27.871Z,1004.66
2016-07-04T02:44:27.887Z,1004.64
2016-07-04T02:45:27.903Z,1004.65
2016-07-04T02:46:27.922Z,1004.66
2016-07-04T02:47:27.937Z,1004.62
2016-07-04T02:48:27.954Z,1004.61
2016-07-04T02:49:27.978Z,1004.59
2016-07-04T02:50:27.991Z,1004.58
2016-07-04T02:51:28.011Z,1004.59
2016-07-04T02:52:28.031Z,1004.56
2016-07-04T02:53:28.052Z,1004.56
2016-07-04T02:54:28.065Z,1004.6
2016-07-04T02:55:28.083Z,1004.58
2016-07-04T02:56:28.102Z,1004.53
2016-07-04T02:57:28.121Z,1004.57
2016-07-04T02:58:28.140Z,1004.57
2016-07-04T02:59:28.159Z,1004.58
2016-07-04T03:00:28.176Z,1004.6
2016-07-04T03:01:28.192Z,1004.6
2016-07-04T03:02:28.211Z,1004.6
2016-07-04T03:03:28.230Z,1004.58
2016-07-04T03:04:28.248Z,1004.58
2016-07-04T03:05:28.265Z,1004.58
2016-07-04T03:06:28.282Z,1004.6
2016-07-04T03:07:28.304Z,1004.57
2016-07-04T03:08:28.319Z,1004.6
2016-07-04T03:09:28.336Z,1004.58
2016-07-04T03:10:28.352Z,1004.63
2016-07-04T03:11:28.372Z,1004.63
2016-07-04T03:12:28.388Z,1004.64
2016-07-04T03:13:28.403Z,1004.67
2016-07-04T03:14:28.426Z,1004.65
2016-07-04T03:15:28.439Z,1004.67
2016-07-04T03:16:28.457Z,1004.63
2016-07-04T03:17:28.478Z,1004.66
2016-07-04T03:18:28.497Z,1004.68
2016-07-04T03:19:28.513Z,1004.67
2016-07-04T03:20:28.528Z,1004.67
2016-07-04T03:21:28.543Z,1004.69
2016-07-04T03:22:28.563Z,1004.71
2016-07-04T03:23:28.584Z,1004.67
2016-07-04T03:24:28.597Z,1004.72
2016-07-04T03:25:28.621Z,1004.7
2016-07-04T03:26:28.640Z,1004.72
2016-07-04T03:27:28.654Z,1004.76
2016-07-04T03:28:28.672Z,1004.74
2016-07-04T03:29:28.692Z,1004.78
2016-07-04T03:30:28.711Z,1004.78
2016-07-04T03:31:28.729Z,1004.74
2016-07-04T03:32:28.749Z,1004.78
2016-07-04T03:33:28.762Z,1004.78
2016-07-04T03:34:28.781Z,1004.77
2016-07-04T03:35:28.796Z,1004.81
2016-07-04T03:36:28.817Z,1004.78
2016-07-04T03:37:28.835Z,1004.84
2016-07-04T03:38:28.851Z,1004.82
2016-07-04T03:39:28.868Z,1004.84
2016-07-04T03:40:28.888Z,1004.84
2016-07-04T03:41:28.903Z,1004.83
2016-07-04T03:42:28.920Z,1004.82
2016-07-04T03:43:28.939Z,1004.83
2016-07-04T03:44:28.954Z,1004.85
2016-07-04T03:45:28.973Z,1004.83
2016-07-04T03:46:28.992Z,1004.88
2016-07-04T03:47:29.011Z,1004.86
2016-07-04T03:48:29.029Z,1004.88
2016-07-04T03:49:29.044Z,1004.87
2016-07-04T03:50:29.065Z,1004.9
2016-07-04T03:51:29.085Z,1004.9
2016-07-04T03:52:29.102Z,1004.86
2016-07-04T03:53:29.119Z,1004.92
2016-07-04T03:54:29.132Z,1004.91
2016-07-04T03:55:29.152Z,1004.94
2016-07-04T03:56:29.169Z,1004.88
2016-07-04T03:57:29.189Z,1004.85
2016-07-04T03:58:29.203Z,1004.88
2016-07-04T03:59:29.227Z,1004.86
2016-07-04T04:00:29.247Z,1004.9
2016-07-04T04:01:29.259Z,1004.89
2016-07-04T04:02:29.278Z,1004.92
2016-07-04T04:03:29.291Z,1004.91
2016-07-04T04:04:29.309Z,1004.91
2016-07-04T04:05:29.329Z,1004.94
2016-07-04T04:06:29.348Z,1004.93
2016-07-04T04:07:29.363Z,1004.92
2016-07-04T04:08:29.380Z,1004.93
2016-07-04T04:09:29.403Z,1004.97
2016-07-04T04:10:29.417Z,1004.99
2016-07-04T04:11:29.434Z,1005.02
2016-07-04T04:12:29.453Z,1004.99
2016-07-04T04:13:29.472Z,1005.04
2016-07-04T04:14:29.492Z,1004.98
2016-07-04T04:15:29.509Z,1005.02
2016-07-04T04:16:29.526Z,1005.06
2016-07-04T04:17:29.546Z,1005.07
2016-07-04T04:18:29.567Z,1005.11
2016-07-04T04:19:29.587Z,1005.06
2016-07-04T04:20:29.605Z,1005.05
2016-07-04T04:21:29.620Z,1005.07
2016-07-04T04:22:29.640Z,1005.03
2016-07-04T04:23:29.659Z,1005.04
2016-07-04T04:24:29.679Z,1005.06
2016-07-04T04:25:29.694Z,1005.07
2016-07-04T04:26:29.726Z,1005.06
2016-07-04T04:27:29.731Z,1005.04
2016-07-04T04:28:29.750Z,1005.09
2016-07-04T04:29:29.772Z,1005.03
2016-07-04T04:30:29.786Z,1005.05
2016-07-04T04:31:29.811Z,1005.08
2016-07-04T04:32:29.825Z,1005.04
2016-07-04T04:33:29.841Z,1005.06
2016-07-04T04:34:29.862Z,1005.05
2016-07-04T04:35:29.882Z,1005.03
2016-07-04T04:36:29.899Z,1005.04
2016-07-04T04:37:29.918Z,1005.08
2016-07-04T04:38:29.938Z,1005.07
2016-07-04T04:39:29.959Z,1005.11
2016-07-04T04:40:29.976Z,1005.14
2016-07-04T04:41:29.996Z,1005.13
2016-07-04T04:42:30.011Z,1005.14
2016-07-04T04:43:30.032Z,1005.16
2016-07-04T04:44:30.049Z,1005.2
2016-07-04T04:45:30.073Z,1005.21
2016-07-04T04:46:30.089Z,1005.18
2016-07-04T04:47:30.107Z,1005.16
2016-07-04T04:48:30.128Z,1005.18
2016-07-04T04:49:30.145Z,1005.2
2016-07-04T04:50:30.161Z,1005.2
2016-07-04T04:51:30.186Z,1005.2
2016-07-04T04:52:30.200Z,1005.21
2016-07-04T04:53:30.221Z,1005.16
2016-07-04T04:54:30.240Z,1005.16
2016-07-04T04:55:30.262Z,1005.19
2016-07-04T04:56:30.275Z,1005.2
2016-07-04T04:57:30.296Z,1005.21
2016-07-04T04:58:30.314Z,1005.21
2016-07-04T04:59:30.338Z,1005.2
2016-07-04T05:00:30.354Z,1005.19
2016-07-04T05:01:30.374Z,1005.15
2016-07-04T05:02:30.395Z,1005.21
2016-07-04T05:03:30.416Z,1005.2
2016-07-04T05:04:30.430Z,1005.21
2016-07-04T05:05:30.450Z,1005.21
2016-07-04T05:06:30.471Z,1005.23
2016-07-04T05:07:30.491Z,1005.24
2016-07-04T05:08:30.509Z,1005.25
2016-07-04T05:09:30.524Z,1005.23
2016-07-04T05:10:30.547Z,1005.23
2016-07-04T05:11:30.567Z,1005.25
2016-07-04T05:12:30.587Z,1005.21
2016-07-04T05:13:30.603Z,1005.2
2016-07-04T05:14:30.622Z,1005.17
2016-07-04T05:15:30.642Z,1005.21
2016-07-04T05:16:30.661Z,1005.23
2016-07-04T05:17:30.679Z,1005.24
2016-07-04T05:18:30.700Z,1005.21
2016-07-04T05:19:30.721Z,1005.25
2016-07-04T05:20:30.738Z,1005.29
2016-07-04T05:21:30.759Z,1005.24
2016-07-04T05:22:30.774Z,1005.22
2016-07-04T05:23:30.822Z,1005.26
2016-07-04T05:24:30.857Z,1005.23
2016-07-04T05:25:30.882Z,1005.23
2016-07-04T05:26:30.903Z,1005.25
2016-07-04T05:27:30.915Z,1005.27
2016-07-04T05:28:30.915Z,1005.29
2016-07-04T05:29:30.914Z,1005.28
2016-07-04T05:30:30.931Z,1005.29
2016-07-04T05:31:30.949Z,1005.29
2016-07-04T05:32:30.967Z,1005.28
2016-07-04T05:33:30.988Z,1005.26
2016-07-04T05:34:31.006Z,1005.32
2016-07-04T05:35:31.025Z,1005.25
2016-07-04T05:36:31.062Z,1005.3
2016-07-04T05:37:31.063Z,1005.25
2016-07-04T05:38:31.185Z,1005.28
2016-07-04T05:39:31.104Z,1005.28
2016-07-04T05:40:31.115Z,1005.31
2016-07-04T05:41:31.140Z,1005.31
2016-07-04T05:42:31.159Z,1005.27
2016-07-04T05:43:31.177Z,1005.29
2016-07-04T05:44:31.197Z,1005.27
2016-07-04T05:45:31.215Z,1005.28
2016-07-04T05:46:31.235Z,1005.31
2016-07-04T05:47:31.255Z,1005.32
2016-07-04T05:48:31.273Z,1005.32
2016-07-04T05:49:31.294Z,1005.27
2016-07-04T05:50:31.310Z,1005.34
2016-07-04T05:51:31.332Z,1005.3
2016-07-04T05:52:31.359Z,1005.33
2016-07-04T05:53:31.375Z,1005.3
2016-07-04T05:54:31.394Z,1005.34
2016-07-04T05:55:31.408Z,1005.3
2016-07-04T05:56:31.435Z,1005.36
2016-07-04T05:57:31.452Z,1005.3
2016-07-04T05:58:31.472Z,1005.35
2016-07-04T05:59:31.489Z,1005.38
2016-07-04T06:00:31.513Z,1005.41
2016-07-04T06:01:31.534Z,1005.4
2016-07-04T06:02:31.553Z,1005.41
2016-07-04T06:03:31.572Z,1005.42
2016-07-04T06:04:31.593Z,1005.41
2016-07-04T06:05:31.613Z,1005.47
2016-07-04T06:06:31.634Z,1005.47
2016-07-04T06:07:31.648Z,1005.46
2016-07-04T06:08:31.670Z,1005.51
2016-07-04T06:09:31.695Z,1005.49
2016-07-04T06:10:31.711Z,1005.49
2016-07-04T06:11:31.730Z,1005.53
2016-07-04T06:12:31.747Z,1005.5
2016-07-04T06:13:31.770Z,1005.51
2016-07-04T06:14:31.830Z,1005.52
2016-07-04T06:15:31.809Z,1005.51
2016-07-04T06:16:31.830Z,1005.52
2016-07-04T06:17:31.851Z,1005.44
2016-07-04T06:18:31.869Z,1005.48
2016-07-04T06:19:31.887Z,1005.48
2016-07-04T06:20:31.909Z,1005.44
2016-07-04T06:21:31.932Z,1005.46
2016-07-04T06:22:31.955Z,1005.45
2016-07-04T06:23:31.972Z,1005.49
2016-07-04T06:24:31.989Z,1005.48
2016-07-04T06:25:32.010Z,1005.53
2016-07-04T06:26:32.032Z,1005.5
2016-07-04T06:27:32.049Z,1005.52
2016-07-04T06:28:32.074Z,1005.51
2016-07-04T06:29:32.095Z,1005.56
2016-07-04T06:30:32.110Z,1005.54
2016-07-04T06:31:32.151Z,1005.54
2016-07-04T06:32:32.151Z,1005.53
2016-07-04T06:33:32.175Z,1005.54
2016-07-04T06:34:32.195Z,1005.52
2016-07-04T06:35:32.216Z,1005.54
2016-07-04T06:36:32.234Z,1005.56
2016-07-04T06:37:32.256Z,1005.56
2016-07-04T06:38:32.275Z,1005.57
2016-07-04T06:39:32.294Z,1005.57
2016-07-04T06:40:32.317Z,1005.62
2016-07-04T06:41:32.337Z,1005.57
2016-07-04T06:42:32.359Z,1005.57
2016-07-04T06:43:32.379Z,1005.54
2016-07-04T06:44:32.394Z,1005.54
2016-07-04T06:45:32.414Z,1005.54
2016-07-04T06:46:32.440Z,1005.55
2016-07-04T06:47:32.489Z,1005.6
2016-07-04T06:48:32.481Z,1005.54
2016-07-04T06:49:32.503Z,1005.5
2016-07-04T06:50:32.523Z,1005.52
2016-07-04T06:51:32.543Z,1005.55
2016-07-04T06:52:32.566Z,1005.54
2016-07-04T06:53:32.589Z,1005.57
2016-07-04T06:54:32.607Z,1005.56
2016-07-04T06:55:32.627Z,1005.55
2016-07-04T06:56:32.652Z,1005.53
2016-07-04T06:57:32.669Z,1005.55
2016-07-04T06:58:32.694Z,1005.59
2016-07-04T06:59:32.711Z,1005.56
2016-07-04T07:00:32.733Z,1005.59
2016-07-04T07:01:32.756Z,1005.53
2016-07-04T07:02:32.774Z,1005.55
2016-07-04T07:03:32.798Z,1005.51
2016-07-04T07:04:32.820Z,1005.54
2016-07-04T07:05:32.842Z,1005.53
2016-07-04T07:06:32.865Z,1005.53
2016-07-04T07:07:32.895Z,1005.5
2016-07-04T07:08:32.909Z,1005.48
2016-07-04T07:09:32.976Z,1005.45
2016-07-04T07:10:32.981Z,1005.47
2016-07-04T07:11:33.022Z,1005.5
2016-07-04T07:12:33.037Z,1005.46
2016-07-04T07:13:33.040Z,1005.44
2016-07-04T07:14:33.036Z,1005.44
2016-07-04T07:15:33.059Z,1005.45
2016-07-04T07:16:33.084Z,1005.46
2016-07-04T07:17:33.102Z,1005.45
2016-07-04T07:18:33.126Z,1005.39
2016-07-04T07:19:33.151Z,1005.41
2016-07-04T07:20:33.172Z,1005.37
2016-07-04T07:21:33.190Z,1005.42
2016-07-04T07:22:33.215Z,1005.41
2016-07-04T07:23:33.237Z,1005.43
2016-07-04T07:24:33.258Z,1005.38
2016-07-04T07:25:33.279Z,1005.38
2016-07-04T07:26:33.302Z,1005.4
2016-07-04T07:27:33.321Z,1005.38
2016-07-04T07:28:33.341Z,1005.42
2016-07-04T07:29:33.365Z,1005.33
2016-07-04T07:30:33.389Z,1005.3
2016-07-04T07:31:33.415Z,1005.26
2016-07-04T07:32:33.430Z,1005.32
2016-07-04T07:33:33.448Z,1005.31
2016-07-04T07:34:33.477Z,1005.29
2016-07-04T07:35:33.494Z,1005.36
2016-07-04T07:36:33.520Z,1005.3
2016-07-04T07:37:33.754Z,1005.3
2016-07-04T07:38:33.561Z,1005.27
2016-07-04T07:39:33.578Z,1005.31
2016-07-04T07:40:33.604Z,1005.29
2016-07-04T07:41:33.626Z,1005.29
2016-07-04T07:42:33.648Z,1005.31
2016-07-04T07:43:33.665Z,1005.31
2016-07-04T07:44:33.693Z,1005.31
2016-07-04T07:45:33.711Z,1005.3
2016-07-04T07:46:33.732Z,1005.27
2016-07-04T07:47:33.752Z,1005.27
2016-07-04T07:48:33.774Z,1005.25
2016-07-04T07:49:33.798Z,1005.29
2016-07-04T07:50:33.824Z,1005.32
2016-07-04T07:51:34.100Z,1005.32
2016-07-04T07:52:33.864Z,1005.32
2016-07-04T07:53:33.886Z,1005.3
2016-07-04T07:54:33.909Z,1005.24
2016-07-04T07:55:33.930Z,1005.28
2016-07-04T07:56:33.948Z,1005.24
2016-07-04T07:57:34.018Z,1005.3
2016-07-04T07:58:34.290Z,1005.29
2016-07-04T07:59:34.015Z,1005.26
2016-07-04T08:00:34.037Z,1005.26
2016-07-04T08:01:34.061Z,1005.26
2016-07-04T08:02:34.080Z,1005.24
2016-07-04T08:03:34.103Z,1005.24
2016-07-04T08:04:34.128Z,1005.26
2016-07-04T08:05:34.147Z,1005.23
2016-07-04T08:06:34.171Z,1005.21
2016-07-04T08:07:34.241Z,1005.2
2016-07-04T08:08:34.330Z,1005.22
2016-07-04T08:09:34.233Z,1005.17
2016-07-04T08:10:34.260Z,1005.17
2016-07-04T08:11:34.281Z,1005.17
2016-07-04T08:12:34.894Z,1005.17
2016-07-04T08:13:34.517Z,1005.19
2016-07-04T08:14:34.346Z,1005.19
2016-07-04T08:15:34.367Z,1005.14
2016-07-04T08:16:34.389Z,1005.19
2016-07-04T08:17:34.508Z,1005.2
2016-07-04T08:18:34.435Z,1005.18
2016-07-04T08:19:34.456Z,1005.19
2016-07-04T08:20:34.474Z,1005.2
2016-07-04T08:21:34.497Z,1005.18
2016-07-04T08:22:34.528Z,1005.17
2016-07-04T08:23:34.558Z,1005.16
2016-07-04T08:24:34.606Z,1005.19
2016-07-04T08:25:34.584Z,1005.21
2016-07-04T08:26:34.756Z,1005.29
2016-07-04T08:27:38.933Z,1005.25
2016-07-04T08:28:34.653Z,1005.24
2016-07-04T08:29:34.672Z,1005.22
2016-07-04T08:30:34.691Z,1005.22
2016-07-04T08:31:34.713Z,1005.32
2016-07-04T08:32:34.742Z,1005.29
2016-07-04T08:33:34.786Z,1005.27
2016-07-04T08:34:34.782Z,1005.22
2016-07-04T08:35:34.804Z,1005.27
2016-07-04T08:36:34.825Z,1005.24
2016-07-04T08:37:34.847Z,1005.22
2016-07-04T08:38:34.875Z,1005.25
2016-07-04T08:39:34.895Z,1005.27
2016-07-04T08:40:34.915Z,1005.3
2016-07-04T08:41:34.938Z,1005.24
2016-07-04T08:42:34.959Z,1005.27
2016-07-04T08:43:34.981Z,1005.26
2016-07-04T08:44:35.005Z,1005.21
2016-07-04T08:45:35.033Z,1005.22
2016-07-04T08:46:35.050Z,1005.19
2016-07-04T08:47:35.072Z,1005.25
2016-07-04T08:48:35.135Z,1005.3
2016-07-04T08:49:35.115Z,1005.27
2016-07-04T08:50:55.999Z,1005.26
2016-07-04T08:52:48.839Z,1005.31
2016-07-04T08:54:36.101Z,1005.35
2016-07-04T08:55:35.246Z,1005.3
2016-07-04T08:56:35.267Z,1005.28
2016-07-04T08:57:35.287Z,1005.26
2016-07-04T08:58:35.313Z,1005.23
2016-07-04T08:59:35.334Z,1005.21
2016-07-04T09:25:53.352Z,1005.09
2016-07-04T09:26:53.376Z,1005.1
2016-07-04T09:27:53.397Z,1005.07
2016-07-04T09:28:53.420Z,1005.09
2016-07-04T09:29:53.441Z,1005.01
2016-07-04T09:30:53.461Z,1005.03
2016-07-04T09:31:53.485Z,1005.03
2016-07-04T09:32:53.505Z,1005.04
2016-07-04T09:33:53.528Z,1005
2016-07-04T09:34:53.546Z,1004.96
2016-07-04T09:35:53.573Z,1004.94
2016-07-04T09:36:53.596Z,1004.89
2016-07-04T09:37:53.622Z,1004.91
2016-07-04T09:38:53.640Z,1004.87
2016-07-04T09:39:53.664Z,1004.92
2016-07-04T09:40:53.682Z,1004.95
2016-07-04T09:41:53.710Z,1005.01
2016-07-04T09:42:53.731Z,1004.94
2016-07-04T09:43:53.752Z,1004.96
2016-07-04T09:44:53.774Z,1004.93
2016-07-04T09:45:53.802Z,1004.91
2016-07-04T09:46:53.820Z,1004.92
2016-07-04T09:47:53.844Z,1004.91
2016-07-04T09:48:53.868Z,1004.87
2016-07-04T09:49:53.892Z,1004.87
2016-07-04T09:50:53.912Z,1004.89
2016-07-04T09:51:53.961Z,1004.91
2016-07-04T09:52:53.959Z,1004.88
2016-07-04T09:53:53.982Z,1004.89
2016-07-04T09:54:54.009Z,1004.89
2016-07-04T09:55:54.030Z,1004.97
2016-07-04T09:56:54.054Z,1004.97
2016-07-04T09:57:54.074Z,1005.02
2016-07-04T09:58:54.099Z,1004.96
2016-07-04T09:59:54.123Z,1004.88
2016-07-04T10:00:54.149Z,1004.89
2016-07-04T10:01:54.168Z,1004.95
2016-07-04T10:02:54.193Z,1004.96
2016-07-04T10:03:54.215Z,1004.97
2016-07-04T10:04:54.241Z,1004.95
2016-07-04T10:05:54.261Z,1004.95
2016-07-04T10:06:54.285Z,1005.04
2016-07-04T10:07:54.308Z,1005.03
2016-07-04T10:08:54.329Z,1004.97
2016-07-04T10:09:54.356Z,1004.9
2016-07-04T10:10:54.383Z,1004.87
2016-07-04T10:11:54.403Z,1004.88
2016-07-04T10:12:54.426Z,1004.79
2016-07-04T10:13:54.452Z,1004.79
2016-07-04T10:14:54.472Z,1004.85
2016-07-04T10:15:54.500Z,1004.84
2016-07-04T10:16:54.524Z,1004.81
2016-07-04T10:17:54.540Z,1004.84
2016-07-04T10:18:54.562Z,1004.88
2016-07-04T10:19:54.588Z,1004.8
2016-07-04T10:20:54.613Z,1004.86
2016-07-04T10:21:54.638Z,1004.86
2016-07-04T10:22:54.660Z,1004.85
2016-07-04T10:23:54.684Z,1004.91
2016-07-04T10:24:54.714Z,1004.89
2016-07-04T10:25:54.729Z,1004.93
2016-07-04T10:26:54.756Z,1004.92
2016-07-04T10:27:54.776Z,1004.87
2016-07-04T10:28:54.806Z,1004.91
2016-07-04T10:29:54.825Z,1004.9
2016-07-04T10:30:54.845Z,1004.82
2016-07-04T10:31:54.873Z,1004.86
2016-07-04T10:32:54.898Z,1004.77
2016-07-04T10:33:54.927Z,1004.77
2016-07-04T10:34:54.948Z,1004.8
2016-07-04T10:35:54.971Z,1004.8
2016-07-04T10:36:54.994Z,1004.75
2016-07-04T10:37:55.019Z,1004.76
2016-07-04T10:38:55.042Z,1004.76
2016-07-04T10:39:55.062Z,1004.76
2016-07-04T10:40:55.093Z,1004.73
2016-07-04T10:41:55.112Z,1004.69
2016-07-04T10:42:55.140Z,1004.67
2016-07-04T10:43:55.159Z,1004.66
2016-07-04T10:44:55.185Z,1004.65
2016-07-04T10:45:55.207Z,1004.58
2016-07-04T10:46:55.227Z,1004.62
2016-07-04T10:47:55.256Z,1004.64
2016-07-04T10:48:55.279Z,1004.65
2016-07-04T10:49:55.298Z,1004.66
2016-07-04T10:50:55.326Z,1004.68
2016-07-04T10:51:55.347Z,1004.71
2016-07-04T10:52:55.371Z,1004.68
2016-07-04T10:53:55.396Z,1004.71
2016-07-04T10:54:55.416Z,1004.7
2016-07-04T10:55:55.436Z,1004.69
2016-07-04T10:56:55.461Z,1004.7
2016-07-04T10:57:55.489Z,1004.65
2016-07-04T10:58:55.509Z,1004.63
2016-07-04T10:59:55.532Z,1004.58
2016-07-04T11:00:55.554Z,1004.59
2016-07-04T11:01:55.580Z,1004.54
2016-07-04T11:02:55.601Z,1004.42
2016-07-04T11:03:55.628Z,1004.45
2016-07-04T11:04:55.647Z,1004.44
2016-07-04T11:05:55.672Z,1004.36
2016-07-04T11:06:55.695Z,1004.43
2016-07-04T11:07:55.715Z,1004.4
2016-07-04T11:08:55.744Z,1004.4
2016-07-04T11:09:55.766Z,1004.42
2016-07-04T11:10:55.791Z,1004.4
2016-07-04T11:11:55.817Z,1004.51
2016-07-04T11:12:55.838Z,1004.49
2016-07-04T11:13:55.862Z,1004.52
2016-07-04T11:14:55.886Z,1004.52
2016-07-04T11:15:55.908Z,1004.46
2016-07-04T11:16:55.936Z,1004.46
2016-07-04T11:17:55.956Z,1004.42
2016-07-04T11:18:55.989Z,1004.43
2016-07-04T11:19:56.009Z,1004.42
2016-07-04T11:20:56.028Z,1004.47
2016-07-04T11:21:56.057Z,1004.51
2016-07-04T11:22:56.076Z,1004.51
2016-07-04T11:23:56.100Z,1004.53
2016-07-04T11:24:56.121Z,1004.47
2016-07-04T11:25:56.154Z,1004.4
2016-07-04T11:26:56.170Z,1004.27
2016-07-04T11:27:56.195Z,1004.31
2016-07-04T11:28:56.225Z,1004.29
2016-07-04T11:29:56.250Z,1004.3
2016-07-04T11:30:56.271Z,1004.33
2016-07-04T11:31:56.294Z,1004.28
2016-07-04T11:32:56.319Z,1004.27
2016-07-04T11:33:56.340Z,1004.27
2016-07-04T11:34:56.366Z,1004.28
2016-07-04T11:35:56.400Z,1004.28
2016-07-04T11:36:56.419Z,1004.26
2016-07-04T11:37:56.440Z,1004.21
2016-07-04T11:38:56.471Z,1004.14
2016-07-04T11:39:56.488Z,1004.18
2016-07-04T11:40:56.516Z,1004.15
2016-07-04T11:41:56.540Z,1004.16
2016-07-04T11:42:56.561Z,1004.19
2016-07-04T11:43:56.589Z,1004.21
2016-07-04T11:44:56.607Z,1004.28
2016-07-04T11:45:56.637Z,1004.32
2016-07-04T11:46:56.664Z,1004.25
2016-07-04T11:47:56.690Z,1004.26
2016-07-04T11:48:56.707Z,1004.27
2016-07-04T11:49:56.735Z,1004.28
2016-07-04T11:50:56.758Z,1004.22
2016-07-04T11:51:56.782Z,1004.2
2016-07-04T11:52:56.809Z,1004.21
2016-07-04T11:53:56.830Z,1004.16
2016-07-04T11:54:56.853Z,1004.21
2016-07-04T11:55:56.883Z,1004.23
2016-07-04T11:56:56.907Z,1004.21
2016-07-04T11:57:56.926Z,1004.28
2016-07-04T11:58:56.955Z,1004.25
2016-07-04T11:59:56.980Z,1004.16
2016-07-04T12:00:57.004Z,1004.26
2016-07-04T12:01:57.030Z,1004.28
2016-07-04T12:02:57.056Z,1004.32
2016-07-04T12:03:57.085Z,1004.29
2016-07-04T12:04:57.107Z,1004.29
2016-07-04T12:05:57.131Z,1004.32
2016-07-04T12:06:57.159Z,1004.34
2016-07-04T12:07:57.184Z,1004.3
2016-07-04T12:08:57.207Z,1004.33
2016-07-04T12:09:57.233Z,1004.21
2016-07-04T12:10:57.260Z,1004.25
2016-07-04T12:11:57.279Z,1004.25
2016-07-04T12:12:57.310Z,1004.28
2016-07-04T12:13:57.337Z,1004.32
2016-07-04T12:14:57.357Z,1004.25
2016-07-04T12:15:57.384Z,1004.25
2016-07-04T12:16:57.412Z,1004.3
2016-07-04T12:17:57.436Z,1004.27
2016-07-04T12:18:57.458Z,1004.22
2016-07-04T12:19:57.486Z,1004.24
2016-07-04T12:20:57.514Z,1004.25
2016-07-04T12:21:57.541Z,1004.23
2016-07-04T12:22:57.563Z,1004.21
2016-07-04T12:23:57.591Z,1004.17
2016-07-04T12:24:57.615Z,1004.09
2016-07-04T12:25:57.639Z,1004.15
2016-07-04T12:26:57.664Z,1004.15
2016-07-04T12:27:57.694Z,1004.16
2016-07-04T12:28:57.717Z,1004.13
2016-07-04T12:29:57.739Z,1004.14
2016-07-04T12:30:57.767Z,1004.12
2016-07-04T12:31:57.793Z,1004.09
2016-07-04T12:32:57.815Z,1004.11
2016-07-04T12:33:57.840Z,1004.11
2016-07-04T12:34:57.864Z,1004
2016-07-04T12:35:57.889Z,1003.96